sensor_id;sensor_type;location;lat;lon;timestamp;P1;durP1;ratioP1;P2;durP2;ratioP2
36475;SDS011;56615;42.682;23.364;2022-09-09T00:04:33;12.98;;;8.02;;
36475;SDS011;56615;42.682;23.364;2022-09-09T00:07:20;15.63;;;7.70;;
36475;SDS011;56615;42.682;23.364;2022-09-09T00:22:05;20.05;;;9.35;;
36475;SDS011;56615;42.682;23.364;2022-09-09T00:24:46;16.02;;;8.82;;
36475;SDS011;56615;42.682;23.364;2022-09-09T00:27:23;15.23;;;8.73;;
36475;SDS011;56615;42.682;23.364;2022-09-09T00:30:16;16.25;;;9.07;;
36475;SDS011;56615;42.682;23.364;2022-09-09T00:32:58;13.50;;;8.90;;
36475;SDS011;56615;42.682;23.364;2022-09-09T00:35:37;16.50;;;9.10;;
36475;SDS011;56615;42.682;23.364;2022-09-09T00:38:13;16.67;;;9.57;;
36475;SDS011;56615;42.682;23.364;2022-09-09T00:40:45;14.77;;;9.32;;
36475;SDS011;56615;42.682;23.364;2022-09-09T00:48:49;13.70;;;8.43;;
36475;SDS011;56615;42.682;23.364;2022-09-09T00:57:26;12.45;;;7.72;;
36475;SDS011;56615;42.682;23.364;2022-09-09T01:14:14;10.63;;;6.90;;
36475;SDS011;56615;42.682;23.364;2022-09-09T01:17:01;9.57;;;6.90;;
36475;SDS011;56615;42.682;23.364;2022-09-09T01:19:37;10.68;;;6.97;;
36475;SDS011;56615;42.682;23.364;2022-09-09T01:27:46;11.23;;;7.18;;
36475;SDS011;56615;42.682;23.364;2022-09-09T01:30:14;11.98;;;7.15;;
36475;SDS011;56615;42.682;23.364;2022-09-09T01:32:42;11.93;;;7.03;;
36475;SDS011;56615;42.682;23.364;2022-09-09T01:35:12;14.00;;;6.90;;
36475;SDS011;56615;42.682;23.364;2022-09-09T01:37:43;10.18;;;6.40;;
36475;SDS011;56615;42.682;23.364;2022-09-09T01:40:08;10.63;;;6.57;;
36475;SDS011;56615;42.682;23.364;2022-09-09T01:42:33;11.48;;;7.25;;
36475;SDS011;56615;42.682;23.364;2022-09-09T01:45:03;11.52;;;6.95;;
36475;SDS011;56615;42.682;23.364;2022-09-09T01:47:29;12.93;;;7.03;;
36475;SDS011;56615;42.682;23.364;2022-09-09T01:49:54;11.77;;;7.43;;
36475;SDS011;56615;42.682;23.364;2022-09-09T01:52:21;14.10;;;6.75;;
36475;SDS011;56615;42.682;23.364;2022-09-09T01:54:47;11.95;;;7.43;;
36475;SDS011;56615;42.682;23.364;2022-09-09T01:57:33;12.05;;;7.60;;
36475;SDS011;56615;42.682;23.364;2022-09-09T02:00:06;14.40;;;7.22;;
36475;SDS011;56615;42.682;23.364;2022-09-09T02:02:44;10.88;;;7.47;;
36475;SDS011;56615;42.682;23.364;2022-09-09T02:08:20;12.23;;;7.90;;
36475;SDS011;56615;42.682;23.364;2022-09-09T02:10:56;12.05;;;7.40;;
36475;SDS011;56615;42.682;23.364;2022-09-09T02:13:30;10.07;;;7.00;;
36475;SDS011;56615;42.682;23.364;2022-09-09T02:18:35;14.43;;;8.18;;
36475;SDS011;56615;42.682;23.364;2022-09-09T02:21:06;14.45;;;7.85;;
36475;SDS011;56615;42.682;23.364;2022-09-09T02:23:31;11.73;;;7.95;;
36475;SDS011;56615;42.682;23.364;2022-09-09T02:25:59;11.27;;;7.97;;
36475;SDS011;56615;42.682;23.364;2022-09-09T02:28:27;12.90;;;7.70;;
36475;SDS011;56615;42.682;23.364;2022-09-09T02:30:57;11.63;;;7.82;;
36475;SDS011;56615;42.682;23.364;2022-09-09T02:33:26;12.93;;;8.43;;
36475;SDS011;56615;42.682;23.364;2022-09-09T02:35:57;10.65;;;7.47;;
36475;SDS011;56615;42.682;23.364;2022-09-09T02:38:35;13.07;;;7.47;;
36475;SDS011;56615;42.682;23.364;2022-09-09T02:41:02;12.82;;;7.60;;
36475;SDS011;56615;42.682;23.364;2022-09-09T02:43:34;12.70;;;7.80;;
36475;SDS011;56615;42.682;23.364;2022-09-09T02:48:52;12.88;;;7.57;;
36475;SDS011;56615;42.682;23.364;2022-09-09T02:51:44;12.15;;;7.93;;
36475;SDS011;56615;42.682;23.364;2022-09-09T02:54:37;11.63;;;7.97;;
36475;SDS011;56615;42.682;23.364;2022-09-09T02:57:17;12.30;;;7.63;;
36475;SDS011;56615;42.682;23.364;2022-09-09T02:59:57;12.57;;;7.88;;
36475;SDS011;56615;42.682;23.364;2022-09-09T03:02:27;13.15;;;7.45;;
36475;SDS011;56615;42.682;23.364;2022-09-09T03:04:53;16.85;;;8.15;;
36475;SDS011;56615;42.682;23.364;2022-09-09T03:07:21;15.15;;;8.18;;
36475;SDS011;56615;42.682;23.364;2022-09-09T03:09:47;11.65;;;7.82;;
36475;SDS011;56615;42.682;23.364;2022-09-09T03:12:19;11.95;;;8.40;;
36475;SDS011;56615;42.682;23.364;2022-09-09T03:14:45;14.95;;;8.55;;
36475;SDS011;56615;42.682;23.364;2022-09-09T03:17:15;16.05;;;8.75;;
36475;SDS011;56615;42.682;23.364;2022-09-09T03:19:41;14.32;;;9.05;;
36475;SDS011;56615;42.682;23.364;2022-09-09T03:22:09;12.07;;;8.57;;
36475;SDS011;56615;42.682;23.364;2022-09-09T03:24:38;16.35;;;9.82;;
36475;SDS011;56615;42.682;23.364;2022-09-09T03:27:06;14.98;;;9.30;;
36475;SDS011;56615;42.682;23.364;2022-09-09T03:29:33;14.27;;;8.88;;
36475;SDS011;56615;42.682;23.364;2022-09-09T03:31:59;14.38;;;9.07;;
36475;SDS011;56615;42.682;23.364;2022-09-09T03:34:26;16.25;;;9.10;;
36475;SDS011;56615;42.682;23.364;2022-09-09T03:36:52;13.50;;;9.18;;
36475;SDS011;56615;42.682;23.364;2022-09-09T03:39:17;16.77;;;9.15;;
36475;SDS011;56615;42.682;23.364;2022-09-09T03:41:45;17.55;;;9.40;;
36475;SDS011;56615;42.682;23.364;2022-09-09T03:44:12;15.25;;;9.45;;
36475;SDS011;56615;42.682;23.364;2022-09-09T03:46:39;13.65;;;9.68;;
36475;SDS011;56615;42.682;23.364;2022-09-09T03:49:05;18.17;;;9.65;;
36475;SDS011;56615;42.682;23.364;2022-09-09T03:51:31;15.93;;;9.40;;
36475;SDS011;56615;42.682;23.364;2022-09-09T03:53:57;14.25;;;9.43;;
36475;SDS011;56615;42.682;23.364;2022-09-09T03:56:24;14.15;;;9.10;;
36475;SDS011;56615;42.682;23.364;2022-09-09T03:58:54;12.48;;;9.13;;
36475;SDS011;56615;42.682;23.364;2022-09-09T04:01:19;14.40;;;9.45;;
36475;SDS011;56615;42.682;23.364;2022-09-09T04:03:45;13.60;;;8.82;;
36475;SDS011;56615;42.682;23.364;2022-09-09T04:06:12;13.35;;;9.13;;
36475;SDS011;56615;42.682;23.364;2022-09-09T04:08:42;18.02;;;9.05;;
36475;SDS011;56615;42.682;23.364;2022-09-09T04:11:10;12.13;;;7.70;;
36475;SDS011;56615;42.682;23.364;2022-09-09T04:13:36;12.48;;;8.43;;
36475;SDS011;56615;42.682;23.364;2022-09-09T04:16:06;11.00;;;7.60;;
36475;SDS011;56615;42.682;23.364;2022-09-09T04:18:32;12.38;;;7.95;;
36475;SDS011;56615;42.682;23.364;2022-09-09T04:21:00;12.43;;;8.55;;
36475;SDS011;56615;42.682;23.364;2022-09-09T04:23:26;12.30;;;8.55;;
36475;SDS011;56615;42.682;23.364;2022-09-09T04:25:54;12.05;;;9.02;;
36475;SDS011;56615;42.682;23.364;2022-09-09T04:28:23;13.75;;;8.85;;
36475;SDS011;56615;42.682;23.364;2022-09-09T04:30:50;13.40;;;8.48;;
36475;SDS011;56615;42.682;23.364;2022-09-09T04:33:17;13.45;;;9.00;;
36475;SDS011;56615;42.682;23.364;2022-09-09T04:35:48;14.70;;;8.70;;
36475;SDS011;56615;42.682;23.364;2022-09-09T04:38:16;14.57;;;8.45;;
36475;SDS011;56615;42.682;23.364;2022-09-09T04:40:51;14.80;;;8.20;;
36475;SDS011;56615;42.682;23.364;2022-09-09T04:43:23;17.30;;;9.60;;
36475;SDS011;56615;42.682;23.364;2022-09-09T04:45:51;12.45;;;8.55;;
36475;SDS011;56615;42.682;23.364;2022-09-09T04:48:17;15.05;;;8.50;;
36475;SDS011;56615;42.682;23.364;2022-09-09T04:50:43;15.10;;;9.18;;
36475;SDS011;56615;42.682;23.364;2022-09-09T04:53:08;14.70;;;8.93;;
36475;SDS011;56615;42.682;23.364;2022-09-09T04:55:34;17.23;;;8.40;;
36475;SDS011;56615;42.682;23.364;2022-09-09T04:58:06;17.80;;;8.15;;
36475;SDS011;56615;42.682;23.364;2022-09-09T05:00:33;14.15;;;8.00;;
36475;SDS011;56615;42.682;23.364;2022-09-09T05:03:03;12.60;;;7.43;;
36475;SDS011;56615;42.682;23.364;2022-09-09T05:05:30;16.02;;;7.88;;
36475;SDS011;56615;42.682;23.364;2022-09-09T05:08:02;14.23;;;8.18;;
36475;SDS011;56615;42.682;23.364;2022-09-09T05:10:28;13.00;;;7.65;;
36475;SDS011;56615;42.682;23.364;2022-09-09T05:12:57;17.25;;;7.97;;
36475;SDS011;56615;42.682;23.364;2022-09-09T05:15:22;13.65;;;7.97;;
36475;SDS011;56615;42.682;23.364;2022-09-09T05:20:48;13.30;;;7.78;;
36475;SDS011;56615;42.682;23.364;2022-09-09T05:23:16;13.95;;;7.18;;
36475;SDS011;56615;42.682;23.364;2022-09-09T05:25:42;13.23;;;7.18;;
36475;SDS011;56615;42.682;23.364;2022-09-09T05:28:11;13.98;;;7.18;;
36475;SDS011;56615;42.682;23.364;2022-09-09T05:30:38;13.48;;;7.60;;
36475;SDS011;56615;42.682;23.364;2022-09-09T05:33:04;16.13;;;7.47;;
36475;SDS011;56615;42.682;23.364;2022-09-09T05:38:03;12.52;;;7.32;;
36475;SDS011;56615;42.682;23.364;2022-09-09T05:40:28;15.70;;;6.95;;
36475;SDS011;56615;42.682;23.364;2022-09-09T05:42:55;15.32;;;6.85;;
36475;SDS011;56615;42.682;23.364;2022-09-09T05:45:21;15.85;;;6.35;;
36475;SDS011;56615;42.682;23.364;2022-09-09T05:47:53;15.73;;;6.40;;
36475;SDS011;56615;42.682;23.364;2022-09-09T05:50:30;10.85;;;6.75;;
36475;SDS011;56615;42.682;23.364;2022-09-09T05:52:55;14.15;;;6.45;;
36475;SDS011;56615;42.682;23.364;2022-09-09T05:55:21;12.60;;;5.85;;
36475;SDS011;56615;42.682;23.364;2022-09-09T05:57:55;9.65;;;5.18;;
36475;SDS011;56615;42.682;23.364;2022-09-09T06:00:21;9.75;;;5.65;;
36475;SDS011;56615;42.682;23.364;2022-09-09T06:02:50;10.32;;;5.53;;
36475;SDS011;56615;42.682;23.364;2022-09-09T06:05:17;11.98;;;4.60;;
36475;SDS011;56615;42.682;23.364;2022-09-09T06:07:59;9.77;;;4.50;;
36475;SDS011;56615;42.682;23.364;2022-09-09T06:10:29;10.95;;;4.78;;
36475;SDS011;56615;42.682;23.364;2022-09-09T06:13:00;8.90;;;5.25;;
36475;SDS011;56615;42.682;23.364;2022-09-09T06:15:27;11.77;;;4.78;;
36475;SDS011;56615;42.682;23.364;2022-09-09T06:17:55;9.98;;;4.82;;
36475;SDS011;56615;42.682;23.364;2022-09-09T06:20:27;10.90;;;5.13;;
36475;SDS011;56615;42.682;23.364;2022-09-09T06:22:59;8.88;;;4.30;;
36475;SDS011;56615;42.682;23.364;2022-09-09T06:25:28;8.05;;;3.90;;
36475;SDS011;56615;42.682;23.364;2022-09-09T06:27:59;8.07;;;3.55;;
36475;SDS011;56615;42.682;23.364;2022-09-09T06:30:27;9.80;;;3.90;;
36475;SDS011;56615;42.682;23.364;2022-09-09T06:32:55;9.07;;;3.53;;
36475;SDS011;56615;42.682;23.364;2022-09-09T06:35:28;9.05;;;3.97;;
36475;SDS011;56615;42.682;23.364;2022-09-09T06:37:59;8.43;;;3.70;;
36475;SDS011;56615;42.682;23.364;2022-09-09T06:40:25;6.85;;;3.78;;
36475;SDS011;56615;42.682;23.364;2022-09-09T06:42:51;10.23;;;3.33;;
36475;SDS011;56615;42.682;23.364;2022-09-09T06:45:23;7.30;;;3.70;;
36475;SDS011;56615;42.682;23.364;2022-09-09T06:47:50;8.65;;;3.95;;
36475;SDS011;56615;42.682;23.364;2022-09-09T06:50:17;8.73;;;4.10;;
36475;SDS011;56615;42.682;23.364;2022-09-09T06:52:46;13.88;;;4.28;;
36475;SDS011;56615;42.682;23.364;2022-09-09T06:55:12;10.55;;;4.30;;
36475;SDS011;56615;42.682;23.364;2022-09-09T06:57:40;8.15;;;3.97;;
36475;SDS011;56615;42.682;23.364;2022-09-09T07:00:06;9.10;;;3.75;;
36475;SDS011;56615;42.682;23.364;2022-09-09T07:02:32;13.02;;;4.45;;
36475;SDS011;56615;42.682;23.364;2022-09-09T07:05:03;9.50;;;3.97;;
36475;SDS011;56615;42.682;23.364;2022-09-09T07:07:29;8.20;;;3.80;;
36475;SDS011;56615;42.682;23.364;2022-09-09T07:09:55;8.55;;;4.30;;
36475;SDS011;56615;42.682;23.364;2022-09-09T07:12:21;8.93;;;4.50;;
36475;SDS011;56615;42.682;23.364;2022-09-09T07:14:48;11.63;;;3.90;;
36475;SDS011;56615;42.682;23.364;2022-09-09T07:17:15;8.85;;;3.40;;
36475;SDS011;56615;42.682;23.364;2022-09-09T07:19:43;5.65;;;3.38;;
36475;SDS011;56615;42.682;23.364;2022-09-09T07:22:13;7.75;;;3.65;;
36475;SDS011;56615;42.682;23.364;2022-09-09T07:24:51;8.10;;;3.50;;
36475;SDS011;56615;42.682;23.364;2022-09-09T07:27:18;9.23;;;3.30;;
36475;SDS011;56615;42.682;23.364;2022-09-09T07:29:58;5.93;;;3.42;;
36475;SDS011;56615;42.682;23.364;2022-09-09T07:33:17;9.90;;;3.80;;
36475;SDS011;56615;42.682;23.364;2022-09-09T07:36:27;6.65;;;3.20;;
36475;SDS011;56615;42.682;23.364;2022-09-09T07:39:23;9.25;;;3.28;;
36475;SDS011;56615;42.682;23.364;2022-09-09T07:42:29;9.02;;;3.90;;
36475;SDS011;56615;42.682;23.364;2022-09-09T07:49:44;8.10;;;3.75;;
36475;SDS011;56615;42.682;23.364;2022-09-09T07:57:07;8.43;;;3.60;;
36475;SDS011;56615;42.682;23.364;2022-09-09T08:00:26;15.18;;;3.88;;
36475;SDS011;56615;42.682;23.364;2022-09-09T08:03:46;6.75;;;3.40;;
36475;SDS011;56615;42.682;23.364;2022-09-09T08:06:59;8.55;;;3.65;;
36475;SDS011;56615;42.682;23.364;2022-09-09T08:10:50;8.90;;;3.88;;
36475;SDS011;56615;42.682;23.364;2022-09-09T08:14:22;8.63;;;3.90;;
36475;SDS011;56615;42.682;23.364;2022-09-09T08:18:04;9.10;;;4.10;;
36475;SDS011;56615;42.682;23.364;2022-09-09T08:21:42;10.07;;;3.78;;
36475;SDS011;56615;42.682;23.364;2022-09-09T08:24:45;7.68;;;3.60;;
36475;SDS011;56615;42.682;23.364;2022-09-09T08:28:19;7.97;;;3.95;;
36475;SDS011;56615;42.682;23.364;2022-09-09T08:32:05;8.70;;;3.80;;
36475;SDS011;56615;42.682;23.364;2022-09-09T08:35:06;11.48;;;4.18;;
36475;SDS011;56615;42.682;23.364;2022-09-09T08:37:56;12.70;;;4.15;;
36475;SDS011;56615;42.682;23.364;2022-09-09T08:40:37;12.50;;;4.10;;
36475;SDS011;56615;42.682;23.364;2022-09-09T08:43:09;8.80;;;3.80;;
36475;SDS011;56615;42.682;23.364;2022-09-09T08:45:43;7.50;;;4.00;;
36475;SDS011;56615;42.682;23.364;2022-09-09T08:48:37;7.45;;;4.20;;
36475;SDS011;56615;42.682;23.364;2022-09-09T08:51:11;8.23;;;4.28;;
36475;SDS011;56615;42.682;23.364;2022-09-09T08:53:45;9.63;;;4.40;;
36475;SDS011;56615;42.682;23.364;2022-09-09T08:56:14;7.50;;;4.18;;
36475;SDS011;56615;42.682;23.364;2022-09-09T08:58:51;8.05;;;4.22;;
36475;SDS011;56615;42.682;23.364;2022-09-09T09:07:08;8.93;;;4.60;;
36475;SDS011;56615;42.682;23.364;2022-09-09T09:12:48;10.98;;;4.63;;
36475;SDS011;56615;42.682;23.364;2022-09-09T09:15:23;9.82;;;4.22;;
36475;SDS011;56615;42.682;23.364;2022-09-09T09:18:04;9.52;;;4.38;;
36475;SDS011;56615;42.682;23.364;2022-09-09T09:23:04;9.70;;;4.40;;
36475;SDS011;56615;42.682;23.364;2022-09-09T09:25:39;8.68;;;4.75;;
36475;SDS011;56615;42.682;23.364;2022-09-09T09:28:18;8.20;;;4.43;;
36475;SDS011;56615;42.682;23.364;2022-09-09T09:30:53;11.60;;;4.55;;
36475;SDS011;56615;42.682;23.364;2022-09-09T09:36:14;8.55;;;4.45;;
36475;SDS011;56615;42.682;23.364;2022-09-09T09:39:24;9.80;;;4.30;;
36475;SDS011;56615;42.682;23.364;2022-09-09T09:42:13;10.43;;;4.43;;
36475;SDS011;56615;42.682;23.364;2022-09-09T09:44:45;10.18;;;4.50;;
36475;SDS011;56615;42.682;23.364;2022-09-09T09:49:56;7.60;;;4.47;;
36475;SDS011;56615;42.682;23.364;2022-09-09T09:55:02;9.25;;;4.43;;
36475;SDS011;56615;42.682;23.364;2022-09-09T09:57:29;7.20;;;4.40;;
36475;SDS011;56615;42.682;23.364;2022-09-09T10:02:44;8.57;;;4.75;;
36475;SDS011;56615;42.682;23.364;2022-09-09T10:08:27;8.30;;;4.57;;
36475;SDS011;56615;42.682;23.364;2022-09-09T10:13:42;8.07;;;4.80;;
36475;SDS011;56615;42.682;23.364;2022-09-09T10:16:43;10.70;;;5.43;;
36475;SDS011;56615;42.682;23.364;2022-09-09T10:19:27;10.57;;;5.82;;
36475;SDS011;56615;42.682;23.364;2022-09-09T10:24:44;8.15;;;4.85;;
36475;SDS011;56615;42.682;23.364;2022-09-09T10:32:46;10.35;;;4.75;;
36475;SDS011;56615;42.682;23.364;2022-09-09T10:38:45;11.63;;;4.82;;
36475;SDS011;56615;42.682;23.364;2022-09-09T10:47:51;13.38;;;5.30;;
36475;SDS011;56615;42.682;23.364;2022-09-09T10:50:40;11.70;;;4.97;;
36475;SDS011;56615;42.682;23.364;2022-09-09T10:56:25;10.82;;;4.88;;
36475;SDS011;56615;42.682;23.364;2022-09-09T11:04:20;11.05;;;5.68;;
36475;SDS011;56615;42.682;23.364;2022-09-09T11:06:49;12.95;;;5.45;;
36475;SDS011;56615;42.682;23.364;2022-09-09T11:09:18;11.18;;;5.75;;
36475;SDS011;56615;42.682;23.364;2022-09-09T11:11:53;10.48;;;6.13;;
36475;SDS011;56615;42.682;23.364;2022-09-09T11:14:26;11.68;;;6.00;;
36475;SDS011;56615;42.682;23.364;2022-09-09T11:19:39;10.93;;;6.03;;
36475;SDS011;56615;42.682;23.364;2022-09-09T11:24:38;13.52;;;6.53;;
36475;SDS011;56615;42.682;23.364;2022-09-09T11:27:18;10.27;;;5.90;;
36475;SDS011;56615;42.682;23.364;2022-09-09T11:29:53;12.27;;;6.07;;
36475;SDS011;56615;42.682;23.364;2022-09-09T11:38:52;11.07;;;5.88;;
36475;SDS011;56615;42.682;23.364;2022-09-09T11:42:42;12.77;;;6.78;;
36475;SDS011;56615;42.682;23.364;2022-09-09T11:45:11;13.80;;;6.65;;
36475;SDS011;56615;42.682;23.364;2022-09-09T11:47:58;13.43;;;6.63;;
36475;SDS011;56615;42.682;23.364;2022-09-09T11:50:28;13.32;;;6.80;;
36475;SDS011;56615;42.682;23.364;2022-09-09T11:53:03;17.83;;;7.10;;
36475;SDS011;56615;42.682;23.364;2022-09-09T11:55:41;13.52;;;7.00;;
36475;SDS011;56615;42.682;23.364;2022-09-09T11:58:18;19.48;;;9.00;;
36475;SDS011;56615;42.682;23.364;2022-09-09T12:00:50;17.77;;;7.78;;
36475;SDS011;56615;42.682;23.364;2022-09-09T12:09:48;14.23;;;7.20;;
36475;SDS011;56615;42.682;23.364;2022-09-09T12:14:57;14.13;;;7.10;;
36475;SDS011;56615;42.682;23.364;2022-09-09T12:17:28;13.95;;;7.00;;
36475;SDS011;56615;42.682;23.364;2022-09-09T12:25:20;16.48;;;6.57;;
36475;SDS011;56615;42.682;23.364;2022-09-09T12:28:39;14.10;;;7.00;;
36475;SDS011;56615;42.682;23.364;2022-09-09T12:35:19;14.80;;;7.63;;
36475;SDS011;56615;42.682;23.364;2022-09-09T12:38:15;14.20;;;6.72;;
36475;SDS011;56615;42.682;23.364;2022-09-09T12:40:55;13.02;;;7.10;;
36475;SDS011;56615;42.682;23.364;2022-09-09T12:43:27;17.15;;;7.25;;
36475;SDS011;56615;42.682;23.364;2022-09-09T12:46:21;16.70;;;7.45;;
36475;SDS011;56615;42.682;23.364;2022-09-09T12:52:27;22.45;;;7.45;;
36475;SDS011;56615;42.682;23.364;2022-09-09T12:55:15;18.02;;;7.00;;
36475;SDS011;56615;42.682;23.364;2022-09-09T12:58:11;15.90;;;7.18;;
36475;SDS011;56615;42.682;23.364;2022-09-09T13:00:57;18.10;;;7.65;;
36475;SDS011;56615;42.682;23.364;2022-09-09T13:03:46;13.50;;;6.80;;
36475;SDS011;56615;42.682;23.364;2022-09-09T13:06:20;17.05;;;7.07;;
36475;SDS011;56615;42.682;23.364;2022-09-09T13:09:43;12.97;;;6.93;;
36475;SDS011;56615;42.682;23.364;2022-09-09T13:12:19;14.30;;;7.65;;
36475;SDS011;56615;42.682;23.364;2022-09-09T13:14:54;18.50;;;6.90;;
36475;SDS011;56615;42.682;23.364;2022-09-09T13:17:29;13.93;;;7.15;;
36475;SDS011;56615;42.682;23.364;2022-09-09T13:19:56;17.33;;;7.35;;
36475;SDS011;56615;42.682;23.364;2022-09-09T13:27:40;10.57;;;6.38;;
36475;SDS011;56615;42.682;23.364;2022-09-09T13:30:32;11.27;;;6.72;;
36475;SDS011;56615;42.682;23.364;2022-09-09T13:35:34;16.08;;;7.22;;
36475;SDS011;56615;42.682;23.364;2022-09-09T13:38:07;11.73;;;7.00;;
36475;SDS011;56615;42.682;23.364;2022-09-09T13:40:34;16.35;;;7.10;;
36475;SDS011;56615;42.682;23.364;2022-09-09T13:43:00;13.82;;;7.22;;
36475;SDS011;56615;42.682;23.364;2022-09-09T13:45:28;15.60;;;7.30;;
36475;SDS011;56615;42.682;23.364;2022-09-09T13:47:54;12.50;;;6.60;;
36475;SDS011;56615;42.682;23.364;2022-09-09T13:50:27;16.17;;;7.72;;
36475;SDS011;56615;42.682;23.364;2022-09-09T13:52:55;13.25;;;6.95;;
36475;SDS011;56615;42.682;23.364;2022-09-09T13:58:03;13.27;;;6.45;;
36475;SDS011;56615;42.682;23.364;2022-09-09T14:00:33;16.23;;;7.85;;
36475;SDS011;56615;42.682;23.364;2022-09-09T14:02:59;18.15;;;7.28;;
36475;SDS011;56615;42.682;23.364;2022-09-09T14:08:05;16.42;;;7.25;;
36475;SDS011;56615;42.682;23.364;2022-09-09T14:10:31;14.60;;;7.03;;
36475;SDS011;56615;42.682;23.364;2022-09-09T14:13:14;13.18;;;7.15;;
36475;SDS011;56615;42.682;23.364;2022-09-09T14:15:40;11.57;;;6.22;;
36475;SDS011;56615;42.682;23.364;2022-09-09T14:18:09;14.35;;;6.70;;
36475;SDS011;56615;42.682;23.364;2022-09-09T14:20:38;13.15;;;6.47;;
36475;SDS011;56615;42.682;23.364;2022-09-09T14:23:09;18.17;;;7.05;;
36475;SDS011;56615;42.682;23.364;2022-09-09T14:25:35;18.75;;;6.35;;
36475;SDS011;56615;42.682;23.364;2022-09-09T14:30:29;16.02;;;7.20;;
36475;SDS011;56615;42.682;23.364;2022-09-09T14:32:56;16.80;;;7.45;;
36475;SDS011;56615;42.682;23.364;2022-09-09T14:35:23;13.60;;;6.75;;
36475;SDS011;56615;42.682;23.364;2022-09-09T14:37:50;19.08;;;7.45;;
36475;SDS011;56615;42.682;23.364;2022-09-09T14:40:16;15.98;;;6.53;;
36475;SDS011;56615;42.682;23.364;2022-09-09T14:42:44;12.52;;;6.30;;
36475;SDS011;56615;42.682;23.364;2022-09-09T14:45:09;12.13;;;5.78;;
36475;SDS011;56615;42.682;23.364;2022-09-09T14:47:37;13.43;;;6.40;;
36475;SDS011;56615;42.682;23.364;2022-09-09T14:50:09;15.93;;;7.25;;
36475;SDS011;56615;42.682;23.364;2022-09-09T14:52:34;14.85;;;6.90;;
36475;SDS011;56615;42.682;23.364;2022-09-09T14:57:41;17.17;;;6.50;;
36475;SDS011;56615;42.682;23.364;2022-09-09T15:00:11;13.60;;;6.38;;
36475;SDS011;56615;42.682;23.364;2022-09-09T15:02:41;13.00;;;7.63;;
36475;SDS011;56615;42.682;23.364;2022-09-09T15:05:08;14.98;;;6.63;;
36475;SDS011;56615;42.682;23.364;2022-09-09T15:07:37;15.40;;;6.88;;
36475;SDS011;56615;42.682;23.364;2022-09-09T15:10:04;13.23;;;6.80;;
36475;SDS011;56615;42.682;23.364;2022-09-09T15:12:42;18.15;;;8.20;;
36475;SDS011;56615;42.682;23.364;2022-09-09T15:17:42;19.30;;;9.00;;
36475;SDS011;56615;42.682;23.364;2022-09-09T15:20:28;14.85;;;8.15;;
36475;SDS011;56615;42.682;23.364;2022-09-09T15:22:58;15.52;;;8.60;;
36475;SDS011;56615;42.682;23.364;2022-09-09T15:25:23;14.90;;;7.53;;
36475;SDS011;56615;42.682;23.364;2022-09-09T15:27:57;14.77;;;7.50;;
36475;SDS011;56615;42.682;23.364;2022-09-09T15:30:24;18.83;;;7.43;;
36475;SDS011;56615;42.682;23.364;2022-09-09T15:32:50;14.68;;;7.28;;
36475;SDS011;56615;42.682;23.364;2022-09-09T15:37:52;15.65;;;6.97;;
36475;SDS011;56615;42.682;23.364;2022-09-09T15:40:18;12.73;;;7.05;;
36475;SDS011;56615;42.682;23.364;2022-09-09T15:42:44;21.25;;;7.00;;
36475;SDS011;56615;42.682;23.364;2022-09-09T15:45:12;15.18;;;7.20;;
36475;SDS011;56615;42.682;23.364;2022-09-09T15:47:40;12.32;;;7.07;;
36475;SDS011;56615;42.682;23.364;2022-09-09T15:50:06;19.20;;;7.05;;
36475;SDS011;56615;42.682;23.364;2022-09-09T15:52:45;17.48;;;7.30;;
36475;SDS011;56615;42.682;23.364;2022-09-09T15:55:15;16.17;;;6.30;;
36475;SDS011;56615;42.682;23.364;2022-09-09T15:57:49;16.75;;;6.93;;
36475;SDS011;56615;42.682;23.364;2022-09-09T16:00:17;14.93;;;6.32;;
36475;SDS011;56615;42.682;23.364;2022-09-09T16:02:43;14.77;;;8.45;;
36475;SDS011;56615;42.682;23.364;2022-09-09T16:05:09;19.50;;;6.85;;
36475;SDS011;56615;42.682;23.364;2022-09-09T16:07:40;16.80;;;6.70;;
36475;SDS011;56615;42.682;23.364;2022-09-09T16:10:08;15.55;;;7.00;;
36475;SDS011;56615;42.682;23.364;2022-09-09T16:12:33;11.88;;;6.70;;
36475;SDS011;56615;42.682;23.364;2022-09-09T16:14:59;20.17;;;6.78;;
36475;SDS011;56615;42.682;23.364;2022-09-09T16:17:26;19.60;;;6.88;;
36475;SDS011;56615;42.682;23.364;2022-09-09T16:19:53;14.98;;;6.95;;
36475;SDS011;56615;42.682;23.364;2022-09-09T16:22:19;15.05;;;7.38;;
36475;SDS011;56615;42.682;23.364;2022-09-09T16:24:45;18.45;;;7.10;;
36475;SDS011;56615;42.682;23.364;2022-09-09T16:27:11;17.58;;;7.45;;
36475;SDS011;56615;42.682;23.364;2022-09-09T16:29:36;15.32;;;7.05;;
36475;SDS011;56615;42.682;23.364;2022-09-09T16:32:02;16.08;;;7.07;;
36475;SDS011;56615;42.682;23.364;2022-09-09T16:34:27;17.23;;;7.10;;
36475;SDS011;56615;42.682;23.364;2022-09-09T16:36:53;13.50;;;7.75;;
36475;SDS011;56615;42.682;23.364;2022-09-09T16:39:20;18.50;;;6.93;;
36475;SDS011;56615;42.682;23.364;2022-09-09T16:41:47;17.73;;;7.03;;
36475;SDS011;56615;42.682;23.364;2022-09-09T16:44:14;16.30;;;7.40;;
36475;SDS011;56615;42.682;23.364;2022-09-09T16:46:51;26.25;;;13.80;;
36475;SDS011;56615;42.682;23.364;2022-09-09T16:49:20;21.70;;;11.43;;
36475;SDS011;56615;42.682;23.364;2022-09-09T16:51:47;24.10;;;12.23;;
36475;SDS011;56615;42.682;23.364;2022-09-09T16:54:14;21.92;;;10.50;;
36475;SDS011;56615;42.682;23.364;2022-09-09T16:56:48;23.27;;;11.05;;
36475;SDS011;56615;42.682;23.364;2022-09-09T16:59:17;22.23;;;10.88;;
36475;SDS011;56615;42.682;23.364;2022-09-09T17:01:44;19.73;;;9.88;;
36475;SDS011;56615;42.682;23.364;2022-09-09T17:04:18;19.08;;;9.35;;
36475;SDS011;56615;42.682;23.364;2022-09-09T17:06:49;19.27;;;9.38;;
36475;SDS011;56615;42.682;23.364;2022-09-09T17:09:16;20.73;;;10.10;;
36475;SDS011;56615;42.682;23.364;2022-09-09T17:11:41;23.15;;;12.52;;
36475;SDS011;56615;42.682;23.364;2022-09-09T17:14:08;25.23;;;10.10;;
36475;SDS011;56615;42.682;23.364;2022-09-09T17:16:37;18.45;;;9.50;;
36475;SDS011;56615;42.682;23.364;2022-09-09T17:19:07;21.95;;;12.68;;
36475;SDS011;56615;42.682;23.364;2022-09-09T17:27:19;25.92;;;9.45;;
36475;SDS011;56615;42.682;23.364;2022-09-09T17:29:48;18.38;;;9.10;;
36475;SDS011;56615;42.682;23.364;2022-09-09T17:32:15;22.70;;;9.82;;
36475;SDS011;56615;42.682;23.364;2022-09-09T17:34:41;18.88;;;9.13;;
36475;SDS011;56615;42.682;23.364;2022-09-09T17:37:33;18.70;;;8.30;;
36475;SDS011;56615;42.682;23.364;2022-09-09T17:40:22;25.83;;;9.85;;
36475;SDS011;56615;42.682;23.364;2022-09-09T17:43:08;25.02;;;9.90;;
36475;SDS011;56615;42.682;23.364;2022-09-09T17:45:34;21.50;;;10.85;;
36475;SDS011;56615;42.682;23.364;2022-09-09T17:47:59;21.08;;;10.13;;
36475;SDS011;56615;42.682;23.364;2022-09-09T17:50:27;19.55;;;10.55;;
36475;SDS011;56615;42.682;23.364;2022-09-09T17:52:52;25.05;;;11.00;;
36475;SDS011;56615;42.682;23.364;2022-09-09T17:55:21;20.50;;;10.95;;
36475;SDS011;56615;42.682;23.364;2022-09-09T17:57:50;17.45;;;9.32;;
36475;SDS011;56615;42.682;23.364;2022-09-09T18:00:16;15.98;;;8.38;;
36475;SDS011;56615;42.682;23.364;2022-09-09T18:02:41;16.77;;;8.80;;
36475;SDS011;56615;42.682;23.364;2022-09-09T18:05:08;18.42;;;8.88;;
36475;SDS011;56615;42.682;23.364;2022-09-09T18:07:35;16.08;;;7.95;;
36475;SDS011;56615;42.682;23.364;2022-09-09T18:10:01;21.23;;;8.13;;